Time;durP1;ratioP1;P1;durP2;ratioP2;P2;SDS_P1;SDS_P2;PMS_P1;PMS_P2;Temp;Humidity;BMP_temperature;BMP_pressure;BME280_temperature;BME280_humidity;BME280_pressure;Samples;Min_cycle;Max_cycle;Signal;HPM_P1;HPM_P2
2022/05/07 00:00:25;;;;;;;12.70;10.57;;;;;;;12.20;72.43;101013.38;5077285;28;20491;-61
2022/05/07 00:02:51;;;;;;;10.97;9.13;;;;;;;12.22;72.18;101014.09;5078948;28;20480;-61
2022/05/07 00:05:19;;;;;;;12.40;9.50;;;;;;;12.20;72.08;101016.94;5079295;28;20436;-61
2022/05/07 00:07:46;;;;;;;13.43;10.97;;;;;;;12.24;72.11;101017.53;5078384;28;20487;-61
2022/05/07 00:10:13;;;;;;;12.17;10.53;;;;;;;12.20;72.06;101016.06;5078329;28;20518;-61
2022/05/07 00:12:41;;;;;;;12.50;9.40;;;;;;;12.24;72.08;101012.16;5079171;28;20447;-61
2022/05/07 00:15:09;;;;;;;11.73;10.37;;;;;;;12.19;72.13;101014.38;5077066;28;20456;-62
2022/05/07 00:20:19;;;;;;;12.90;10.07;;;;;;;12.04;72.47;101014.69;5070914;28;20448;-61
2022/05/07 00:22:45;;;;;;;14.03;11.50;;;;;;;12.00;72.75;101010.59;5078514;28;20440;-61
2022/05/07 00:25:13;;;;;;;11.93;9.50;;;;;;;11.97;73.31;101015.38;5078554;28;20474;-61
2022/05/07 00:27:41;;;;;;;12.33;9.93;;;;;;;11.97;73.44;101013.53;5079366;28;20462;-61
2022/05/07 00:30:08;;;;;;;11.73;10.53;;;;;;;11.93;73.36;101009.44;5077241;28;20506;-61
2022/05/07 00:32:35;;;;;;;12.03;9.97;;;;;;;11.91;73.65;101014.06;5078880;28;20857;-61
2022/05/07 00:35:02;;;;;;;11.90;10.60;;;;;;;11.83;74.11;101012.00;5079025;28;20470;-61
2022/05/07 00:37:29;;;;;;;13.20;11.33;;;;;;;11.81;73.99;101013.13;5077467;28;20475;-62
2022/05/07 00:39:55;;;;;;;14.03;11.20;;;;;;;11.80;74.31;101006.06;5081043;28;20440;-61
2022/05/07 00:42:22;;;;;;;11.03;9.93;;;;;;;11.82;74.48;101012.13;5082549;28;20533;-63
2022/05/07 00:44:51;;;;;;;11.10;10.00;;;;;;;11.84;74.26;101015.53;5081251;28;20452;-62
2022/05/07 00:47:24;;;;;;;11.57;10.47;;;;;;;11.78;74.54;101011.53;5081584;28;20510;-62
2022/05/07 00:49:53;;;;;;;17.33;11.17;;;;;;;11.72;74.59;101009.38;5079839;28;20531;-61
2022/05/07 00:52:18;;;;;;;11.90;9.30;;;;;;;11.61;74.92;101001.41;5081057;28;20479;-61
2022/05/07 00:54:46;;;;;;;14.97;9.50;;;;;;;11.56;74.89;101003.59;5083196;28;20438;-61
2022/05/07 00:57:13;;;;;;;12.70;10.67;;;;;;;11.55;74.90;100996.56;5082094;28;20259;-62
2022/05/07 00:59:40;;;;;;;10.40;9.40;;;;;;;11.49;75.40;101009.50;5081494;28;20448;-62
2022/05/07 01:02:09;;;;;;;10.50;9.27;;;;;;;11.42;75.37;100996.72;5081276;28;20533;-61
2022/05/07 01:04:37;;;;;;;10.10;9.10;;;;;;;11.42;75.55;100996.72;5082326;28;20455;-61
2022/05/07 01:07:03;;;;;;;11.30;9.90;;;;;;;11.40;75.38;100996.00;5081804;28;20771;-62
2022/05/07 01:09:31;;;;;;;11.03;9.20;;;;;;;11.40;75.47;100999.53;5082187;28;20988;-61
2022/05/07 01:11:58;;;;;;;10.87;9.17;;;;;;;11.46;75.55;101003.53;5081527;28;20483;-62
2022/05/07 01:14:25;;;;;;;10.73;9.23;;;;;;;11.39;75.65;100994.31;5080436;28;20487;-62
2022/05/07 01:16:51;;;;;;;10.43;8.43;;;;;;;11.37;75.37;100994.44;5081429;28;20503;-60
2022/05/07 01:19:19;;;;;;;9.47;8.47;;;;;;;11.48;75.35;100991.72;5081832;28;20479;-61
2022/05/07 01:21:47;;;;;;;10.20;8.03;;;;;;;11.49;74.96;100992.56;5081021;28;20479;-61
2022/05/07 01:24:14;;;;;;;9.53;8.10;;;;;;;11.43;74.84;100985.06;5081935;28;20443;-60
2022/05/07 01:26:41;;;;;;;10.37;8.40;;;;;;;11.42;74.96;100984.22;5081609;28;20886;-60
2022/05/07 01:32:17;;;;;;;12.23;9.70;;;;;;;11.43;75.54;100982.38;5078673;27;20595;-61
2022/05/07 01:34:44;;;;;;;10.37;9.13;;;;;;;11.41;75.28;100973.63;5076312;28;20452;-62
2022/05/07 01:37:10;;;;;;;12.73;10.30;;;;;;;11.30;75.62;100979.84;5075685;28;20479;-60
2022/05/07 01:39:37;;;;;;;10.23;8.80;;;;;;;11.28;75.81;100984.50;5076453;28;20484;-62
2022/05/07 01:42:04;;;;;;;13.00;11.40;;;;;;;11.27;76.11;100972.94;5075932;28;20525;-60
2022/05/07 01:44:31;;;;;;;10.93;9.83;;;;;;;11.18;76.17;100976.38;5075396;28;20845;-60
2022/05/07 01:49:43;;;;;;;10.43;9.33;;;;;;;11.14;76.44;100974.91;5077138;28;21165;-60
2022/05/07 01:52:10;;;;;;;12.13;10.27;;;;;;;11.03;76.69;100978.47;5076531;28;20490;-60
2022/05/07 01:54:37;;;;;;;14.40;10.67;;;;;;;11.01;76.92;100976.94;5077177;28;20436;-60
2022/05/07 01:57:04;;;;;;;14.70;11.27;;;;;;;11.00;77.06;100980.56;5076850;28;20868;-61
2022/05/07 01:59:31;;;;;;;12.33;9.93;;;;;;;10.97;77.13;100976.31;5076365;28;20456;-60
2022/05/07 02:01:58;;;;;;;12.47;11.17;;;;;;;10.95;77.17;100972.91;5076834;28;20507;-60
2022/05/07 02:04:24;;;;;;;13.47;11.23;;;;;;;10.92;77.18;100966.00;5076964;28;20674;-60
2022/05/07 02:06:53;;;;;;;12.97;11.07;;;;;;;10.97;77.25;100967.44;5075996;28;20480;-60
2022/05/07 02:09:19;;;;;;;13.60;11.77;;;;;;;10.91;77.25;100964.28;5076888;28;20466;-60
2022/05/07 02:11:46;;;;;;;13.40;11.57;;;;;;;10.93;77.45;100962.31;5076183;28;20512;-60
2022/05/07 02:14:13;;;;;;;15.10;11.70;;;;;;;10.92;77.35;100967.81;5075734;28;20455;-60
2022/05/07 02:16:39;;;;;;;12.77;10.40;;;;;;;10.89;77.07;100968.06;5076743;28;20555;-60
2022/05/07 02:19:06;;;;;;;12.37;10.97;;;;;;;10.82;77.12;100969.53;5077335;28;20452;-60
2022/05/07 02:21:33;;;;;;;12.67;11.43;;;;;;;10.77;77.56;100963.72;5075848;28;20475;-60
2022/05/07 02:24:01;;;;;;;14.40;11.90;;;;;;;10.81;77.35;100966.00;5076537;28;20481;-60
2022/05/07 02:26:28;;;;;;;18.27;12.40;;;;;;;10.74;77.52;100964.81;5076318;28;20475;-60
2022/05/07 02:28:54;;;;;;;14.57;10.97;;;;;;;10.77;77.41;100969.91;5075523;28;20448;-60
2022/05/07 02:31:21;;;;;;;14.67;11.90;;;;;;;10.72;77.55;100969.44;5075863;28;20518;-61
2022/05/07 02:33:48;;;;;;;13.00;11.60;;;;;;;10.73;77.36;100972.00;5076680;28;20490;-61
2022/05/07 02:36:15;;;;;;;16.03;12.97;;;;;;;10.72;77.50;100972.09;5075155;28;20507;-60
2022/05/07 02:38:41;;;;;;;15.23;13.00;;;;;;;10.66;77.45;100977.94;5076578;28;20506;-61
2022/05/07 02:43:54;;;;;;;14.70;11.90;;;;;;;10.68;77.19;100976.84;5061516;28;20968;-61
2022/05/07 02:46:20;;;;;;;16.87;12.07;;;;;;;10.69;77.57;100973.22;5062463;28;20532;-60
2022/05/07 02:48:47;;;;;;;13.77;11.50;;;;;;;10.76;77.45;100972.72;5050037;28;20453;-60
2022/05/07 02:51:14;;;;;;;12.13;10.10;;;;;;;10.81;77.05;100966.00;5050707;28;20527;-60
2022/05/07 02:53:41;;;;;;;13.23;11.07;;;;;;;10.65;77.22;100970.91;5063125;28;21185;-60
2022/05/07 02:56:07;;;;;;;12.87;11.33;;;;;;;10.66;77.31;100977.94;5062010;28;20473;-60
2022/05/07 02:58:36;;;;;;;14.23;11.33;;;;;;;10.52;77.96;100987.09;5062234;28;20451;-60
2022/05/07 03:01:03;;;;;;;14.30;11.53;;;;;;;10.45;78.57;100984.06;5061996;28;20549;-60
2022/05/07 03:03:30;;;;;;;23.97;13.30;;;;;;;10.46;78.51;100983.06;5062288;28;20471;-60
2022/05/07 03:05:59;;;;;;;14.07;12.03;;;;;;;10.48;78.20;100980.28;5062005;28;20547;-60
2022/05/07 03:08:26;;;;;;;16.23;13.07;;;;;;;10.49;78.02;100977.47;5062939;28;20547;-60
2022/05/07 03:10:53;;;;;;;20.17;12.13;;;;;;;10.55;78.33;100982.34;5061941;28;20503;-60
2022/05/07 03:13:19;;;;;;;15.07;11.40;;;;;;;10.57;78.18;100978.69;5061121;28;20452;-61
2022/05/07 03:15:47;;;;;;;12.27;10.97;;;;;;;10.62;78.19;100971.16;5061869;28;20465;-60
2022/05/07 03:18:14;;;;;;;15.43;12.90;;;;;;;10.56;78.36;100972.50;5062721;28;20464;-60
2022/05/07 03:20:41;;;;;;;18.87;13.00;;;;;;;10.60;78.17;100967.75;5061116;28;20472;-61
2022/05/07 03:23:08;;;;;;;13.77;11.53;;;;;;;10.64;77.97;100975.41;5062214;28;20480;-61
2022/05/07 03:25:34;;;;;;;14.20;11.70;;;;;;;10.65;77.99;100969.06;5062443;28;20460;-60
2022/05/07 03:28:01;;;;;;;20.83;12.70;;;;;;;10.93;77.78;100964.16;5061947;28;20453;-60
2022/05/07 03:30:28;;;;;;;15.50;13.80;;;;;;;10.77;78.35;100961.03;5060486;28;20473;-59
2022/05/07 03:32:56;;;;;;;13.90;11.93;;;;;;;10.86;78.13;100966.47;5061579;28;20935;-59
2022/05/07 03:35:23;;;;;;;13.37;11.97;;;;;;;10.83;77.92;100965.88;5061119;28;20445;-59
2022/05/07 03:37:50;;;;;;;16.73;12.80;;;;;;;10.84;78.01;100964.91;5062010;28;20502;-60
2022/05/07 03:40:17;;;;;;;13.30;11.90;;;;;;;10.88;77.95;100969.91;5061826;28;21155;-60
2022/05/07 03:42:43;;;;;;;17.20;13.80;;;;;;;10.86;77.85;100971.81;5061420;28;20471;-60
2022/05/07 03:45:10;;;;;;;15.40;12.60;;;;;;;10.81;78.34;100970.50;5060310;28;20455;-61
2022/05/07 03:47:37;;;;;;;13.70;11.43;;;;;;;10.75;78.55;100979.88;5058403;28;20473;-61
2022/05/07 03:50:06;;;;;;;14.50;11.73;;;;;;;10.86;78.17;100974.50;5045722;28;20487;-61
2022/05/07 03:55:17;;;;;;;15.13;12.97;;;;;;;10.81;77.81;100976.69;5040633;28;20464;-61
2022/05/07 03:57:44;;;;;;;15.93;12.57;;;;;;;10.78;78.13;100984.13;5033382;28;20441;-61
2022/05/07 04:00:12;;;;;;;13.93;12.40;;;;;;;10.84;78.22;100979.13;5040531;28;20485;-62
2022/05/07 04:02:38;;;;;;;13.23;11.80;;;;;;;10.83;77.99;100981.94;5041679;28;20434;-62
2022/05/07 04:05:07;;;;;;;13.30;11.50;;;;;;;10.90;78.01;100978.66;5040835;28;20866;-61
2022/05/07 04:07:34;;;;;;;14.63;12.43;;;;;;;10.92;77.84;100983.88;5041665;28;20458;-61
2022/05/07 04:10:00;;;;;;;12.90;11.50;;;;;;;11.03;77.17;100985.69;5041689;28;20476;-61
2022/05/07 04:12:27;;;;;;;14.37;12.57;;;;;;;11.06;77.17;100990.78;5040143;28;20887;-61
2022/05/07 04:14:53;;;;;;;14.57;13.07;;;;;;;11.06;76.69;100990.78;5040973;28;20463;-61
2022/05/07 04:17:20;;;;;;;13.17;11.87;;;;;;;11.10;76.56;100992.22;5041149;28;20477;-61
2022/05/07 04:19:47;;;;;;;18.53;13.10;;;;;;;11.12;76.07;100995.63;5040706;28;20454;-61
2022/05/07 04:22:15;;;;;;;13.77;12.27;;;;;;;11.36;75.68;100992.75;5041119;28;20493;-60
2022/05/07 04:24:43;;;;;;;14.13;12.63;;;;;;;11.75;74.58;100997.56;5041512;28;20473;-62
2022/05/07 04:27:10;;;;;;;16.93;12.10;;;;;;;12.35;72.55;101003.19;5032420;28;20557;-62
2022/05/07 04:29:36;;;;;;;14.07;12.60;;;;;;;12.81;70.34;100996.44;5041184;28;20527;-59
2022/05/07 04:32:06;;;;;;;13.63;12.13;;;;;;;13.22;68.54;101004.44;5040034;28;20539;-59
2022/05/07 04:34:33;;;;;;;12.83;11.53;;;;;;;13.34;66.86;101006.03;5040608;28;20450;-60
2022/05/07 04:37:00;;;;;;;13.40;10.70;;;;;;;13.29;67.12;101000.22;5040549;28;20481;-60
2022/05/07 04:39:29;;;;;;;12.00;10.63;;;;;;;13.74;66.15;101002.34;5040608;28;20449;-60
2022/05/07 04:41:56;;;;;;;15.83;10.40;;;;;;;13.74;65.69;101003.19;5040267;28;20533;-60
2022/05/07 04:44:23;;;;;;;12.37;10.90;;;;;;;14.00;64.44;100994.53;5040248;28;20457;-60
2022/05/07 04:46:49;;;;;;;12.60;10.50;;;;;;;13.85;64.86;101001.34;5040181;28;20507;-61
2022/05/07 04:49:19;;;;;;;12.07;10.47;;;;;;;13.36;66.41;101007.59;5038258;28;20465;-60
2022/05/07 04:51:46;;;;;;;11.23;10.03;;;;;;;13.15;67.54;100994.25;5039767;28;20496;-61
2022/05/07 04:54:13;;;;;;;14.77;10.23;;;;;;;13.30;67.89;100996.53;5041146;28;20521;-60
2022/05/07 04:56:41;;;;;;;13.00;10.40;;;;;;;13.53;67.46;101003.34;5039325;28;20489;-61
2022/05/07 04:59:08;;;;;;;12.87;10.47;;;;;;;13.37;67.98;100992.34;5039266;28;21006;-61
2022/05/07 05:01:34;;;;;;;10.63;9.63;;;;;;;13.64;67.51;100998.81;5040625;28;20929;-60
2022/05/07 05:04:01;;;;;;;13.80;10.40;;;;;;;14.12;65.73;101003.28;5040216;28;20488;-61
2022/05/07 05:06:28;;;;;;;12.43;11.17;;;;;;;14.78;64.31;101013.13;5033525;28;21220;-61
2022/05/07 05:08:54;;;;;;;12.90;11.57;;;;;;;15.58;61.07;100999.84;5028207;28;20446;-61
2022/05/07 05:11:21;;;;;;;12.93;11.60;;;;;;;16.43;57.59;101009.25;5020822;28;20478;-62
2022/05/07 05:13:49;;;;;;;12.60;11.23;;;;;;;16.91;56.11;101005.13;5032027;28;20485;-61
2022/05/07 05:16:15;;;;;;;11.57;10.37;;;;;;;16.63;56.90;101001.75;5039816;28;20556;-61
2022/05/07 05:18:41;;;;;;;13.27;10.90;;;;;;;17.12;55.56;101005.50;5038337;28;20896;-62
2022/05/07 05:21:08;;;;;;;11.57;10.37;;;;;;;17.40;54.95;101007.09;5039960;28;20470;-62
2022/05/07 05:23:35;;;;;;;12.73;11.40;;;;;;;17.36;55.20;101014.69;5039294;28;20473;-61
2022/05/07 05:26:01;;;;;;;12.10;11.00;;;;;;;17.16;55.61;101016.81;5039048;28;20712;-62
2022/05/07 05:28:28;;;;;;;13.63;12.03;;;;;;;17.88;54.00;101019.81;5036615;28;20483;-60
2022/05/07 05:30:57;;;;;;;11.90;10.80;;;;;;;18.62;52.24;101019.66;5032929;28;20474;-62
2022/05/07 05:33:23;;;;;;;12.70;11.07;;;;;;;18.05;53.54;101028.78;5038773;28;20488;-60
2022/05/07 05:35:50;;;;;;;12.43;10.07;;;;;;;17.16;55.95;101024.94;5040003;28;20547;-61
2022/05/07 05:38:17;;;;;;;11.90;10.73;;;;;;;17.44;55.26;101022.78;5039841;28;20450;-61
2022/05/07 05:40:43;;;;;;;12.90;11.50;;;;;;;17.59;55.20;101025.69;5038211;28;20485;-61
2022/05/07 05:43:10;;;;;;;13.87;10.93;;;;;;;18.63;51.71;101032.19;5039901;28;20564;-61
2022/05/07 05:45:37;;;;;;;11.77;10.60;;;;;;;17.96;53.94;101027.06;5038817;28;20493;-61
2022/05/07 05:48:06;;;;;;;12.30;11.20;;;;;;;18.25;53.77;101031.09;5036782;28;20450;-61
2022/05/07 05:50:33;;;;;;;14.13;11.40;;;;;;;17.89;54.10;101026.06;5036662;28;20477;-61
2022/05/07 05:53:00;;;;;;;14.47;10.83;;;;;;;17.73;54.61;101015.22;5039509;28;20434;-61
2022/05/07 05:55:27;;;;;;;14.03;11.60;;;;;;;17.38;56.32;101022.63;5038350;28;21199;-62
2022/05/07 05:57:56;;;;;;;13.53;11.93;;;;;;;18.17;53.80;101029.25;5039573;28;20488;-61
2022/05/07 06:00:22;;;;;;;14.73;11.97;;;;;;;18.39;52.94;101024.97;5036640;28;20460;-62
2022/05/07 06:02:49;;;;;;;14.13;12.73;;;;;;;19.58;49.47;101022.22;5038797;28;20512;-65
2022/05/07 06:05:17;;;;;;;13.90;12.50;;;;;;;19.66;48.37;101021.34;5038847;28;20498;-63
2022/05/07 06:07:44;;;;;;;14.53;13.03;;;;;;;19.92;47.56;101018.25;5039912;28;20457;-67
2022/05/07 06:10:10;;;;;;;14.37;12.87;;;;;;;19.21;49.73;101021.13;5034660;28;20445;-65
2022/05/07 06:12:37;;;;;;;13.73;12.33;;;;;;;18.84;51.33;101030.81;5021786;28;20463;-61
2022/05/07 06:15:05;;;;;;;15.17;13.33;;;;;;;18.80;51.85;101024.00;5033461;28;20492;-62
2022/05/07 06:17:32;;;;;;;14.87;13.40;;;;;;;19.65;48.72;101025.06;5055854;28;21054;-61
2022/05/07 06:19:59;;;;;;;13.63;12.10;;;;;;;19.13;50.73;101029.28;5063742;28;20460;-60
2022/05/07 06:22:27;;;;;;;15.53;13.57;;;;;;;19.51;49.85;101024.84;5044362;28;20501;-65
2022/05/07 06:27:38;;;;;;;13.13;11.73;;;;;;;20.41;48.16;101030.50;5031513;28;20468;-62
2022/05/07 06:30:07;;;;;;;15.27;13.73;;;;;;;19.94;48.76;101027.88;5039044;28;20538;-64
2022/05/07 06:32:34;;;;;;;15.13;13.53;;;;;;;20.43;47.79;101031.16;5025514;28;20486;-67
2022/05/07 06:35:03;;;;;;;15.80;14.00;;;;;;;20.54;46.93;101029.88;5039876;28;20457;-62
2022/05/07 06:37:31;;;;;;;15.10;13.60;;;;;;;20.31;47.45;101023.50;5042610;28;20576;-67
2022/05/07 06:39:58;;;;;;;17.60;15.27;;;;;;;20.08;47.92;101028.97;5043132;28;20467;-63
2022/05/07 06:42:25;;;;;;;15.67;14.07;;;;;;;20.29;47.85;101025.56;5040858;28;20924;-64
2022/05/07 06:44:51;;;;;;;16.67;14.10;;;;;;;20.74;47.30;101033.72;5038963;28;20453;-62
2022/05/07 06:47:18;;;;;;;16.27;14.77;;;;;;;20.99;46.62;101028.84;5066529;28;20476;-62
2022/05/07 06:49:45;;;;;;;16.27;13.90;;;;;;;20.57;47.77;101026.75;5051199;28;20961;-65
2022/05/07 06:52:11;;;;;;;15.60;14.20;;;;;;;20.25;48.32;101029.66;5028673;28;20529;-62
2022/05/07 06:54:39;;;;;;;17.70;15.40;;;;;;;21.43;45.24;101036.03;5040888;28;20480;-65
2022/05/07 06:57:07;;;;;;;16.00;13.90;;;;;;;20.89;46.51;101031.00;5058546;28;20559;-66
2022/05/07 06:59:34;;;;;;;17.27;15.67;;;;;;;20.61;46.97;101033.53;5059211;28;20459;-62
2022/05/07 07:02:01;;;;;;;18.27;16.47;;;;;;;20.84;46.90;101033.44;5057923;28;20497;-66
2022/05/07 07:04:28;;;;;;;17.00;15.23;;;;;;;20.98;45.85;101031.75;5053627;28;20453;-61
2022/05/07 07:06:54;;;;;;;19.83;15.90;;;;;;;20.77;46.99;101032.53;5056077;28;20519;-62
2022/05/07 07:09:23;;;;;;;18.37;16.47;;;;;;;21.38;45.72;101038.47;5061531;28;20908;-64
2022/05/07 07:11:51;;;;;;;19.70;15.87;;;;;;;20.95;46.57;101034.84;5061128;28;20495;-62
2022/05/07 07:14:18;;;;;;;17.90;16.20;;;;;;;20.20;48.44;101036.66;5055300;28;20453;-62
2022/05/07 07:16:45;;;;;;;17.30;15.57;;;;;;;20.41;48.76;101038.66;5056897;28;20492;-63
2022/05/07 07:19:12;;;;;;;17.60;15.60;;;;;;;20.95;47.02;101034.84;5061093;28;20445;-65
2022/05/07 07:21:38;;;;;;;19.57;17.57;;;;;;;22.61;43.26;101048.38;5060567;28;20495;-62
2022/05/07 07:24:06;;;;;;;18.37;16.20;;;;;;;23.54;41.19;101048.78;5062075;28;20472;-62
2022/05/07 07:26:32;;;;;;;16.77;15.17;;;;;;;23.13;41.31;101047.81;5062156;28;20480;-61
2022/05/07 07:29:00;;;;;;;17.87;15.13;;;;;;;24.12;39.53;101047.41;5060685;28;20469;-62
2022/05/07 07:31:27;;;;;;;18.57;16.70;;;;;;;22.92;41.88;101050.63;5058112;28;20485;-64
2022/05/07 07:33:54;;;;;;;17.50;15.80;;;;;;;23.01;41.63;101059.50;5057898;28;20458;-63
2022/05/07 07:36:20;;;;;;;18.10;16.40;;;;;;;22.54;42.05;101051.88;5061826;28;20477;-63
2022/05/07 07:38:47;;;;;;;17.93;16.07;;;;;;;22.45;42.77;101046.81;5062052;28;20460;-62
2022/05/07 07:41:14;;;;;;;16.60;15.00;;;;;;;23.87;40.03;101045.28;5061187;28;20469;-62
2022/05/07 07:43:40;;;;;;;18.37;16.57;;;;;;;23.42;40.34;101050.44;5060592;28;20575;-64
2022/05/07 07:48:52;;;;;;;19.03;17.20;;;;;;;22.39;42.61;101048.44;5046166;28;20484;-64
2022/05/07 07:51:19;;;;;;;23.10;17.20;;;;;;;22.50;43.44;101050.63;5056670;28;20488;-64
2022/05/07 07:53:47;;;;;;;18.40;16.50;;;;;;;22.83;41.88;101049.09;5062685;28;20451;-64
2022/05/07 07:56:13;;;;;;;18.27;16.60;;;;;;;23.96;39.38;101046.75;5060632;28;20487;-63
2022/05/07 07:58:40;;;;;;;18.97;17.00;;;;;;;24.21;39.90;101048.84;5049069;28;20463;-62
2022/05/07 08:01:08;;;;;;;17.80;16.00;;;;;;;24.99;37.18;101043.41;5057041;28;20490;-64
2022/05/07 08:03:35;;;;;;;17.33;15.63;;;;;;;25.13;36.41;101041.47;5054427;28;20453;-62
2022/05/07 08:06:01;;;;;;;17.67;15.97;;;;;;;25.62;35.39;101057.44;5057717;28;20503;-63
2022/05/07 08:13:57;;;;;;;17.70;16.10;;;;;;;27.52;32.50;101057.88;5059793;28;20510;-64
2022/05/07 08:16:25;;;;;;;15.43;13.97;;;;;;;28.72;30.97;101048.47;5059377;28;20477;-63
2022/05/07 08:18:53;;;;;;;16.20;14.60;;;;;;;30.14;28.80;101042.34;5061130;28;20445;-63
2022/05/07 08:21:20;;;;;;;16.47;14.87;;;;;;;29.83;27.48;101046.53;5060489;28;20499;-63
2022/05/07 08:23:47;;;;;;;15.73;14.13;;;;;;;26.51;33.76;101047.25;5060257;28;20498;-63
2022/05/07 08:26:14;;;;;;;17.07;14.23;;;;;;;27.29;31.38;101048.47;5060516;28;20468;-64
2022/05/07 08:28:43;;;;;;;14.70;13.30;;;;;;;27.50;32.06;101052.63;5060243;28;20460;-64
2022/05/07 08:31:11;;;;;;;18.20;14.07;;;;;;;28.76;29.81;101047.97;5059144;28;20480;-64
2022/05/07 08:33:41;;;;;;;15.40;14.03;;;;;;;27.35;32.11;101044.78;5060494;28;20460;-64
2022/05/07 08:36:10;;;;;;;15.57;13.80;;;;;;;28.21;30.07;101046.44;5060282;28;20476;-65
2022/05/07 08:38:37;;;;;;;15.10;13.70;;;;;;;28.19;29.52;101041.16;5060179;28;20455;-64
2022/05/07 08:41:04;;;;;;;14.87;13.43;;;;;;;27.16;32.04;101048.63;5059330;28;20477;-64
2022/05/07 08:43:36;;;;;;;14.93;13.43;;;;;;;26.96;32.73;101049.72;5059388;28;20524;-64
2022/05/07 08:46:03;;;;;;;14.90;13.37;;;;;;;26.82;33.21;101045.44;5059244;28;20476;-64
2022/05/07 08:48:30;;;;;;;15.37;13.87;;;;;;;25.42;34.05;101047.47;5057141;28;20484;-64
2022/05/07 08:50:58;;;;;;;14.63;13.07;;;;;;;26.71;33.98;101048.97;5051088;28;21280;-63
2022/05/07 08:53:25;;;;;;;15.23;13.20;;;;;;;27.45;32.08;101041.50;5048077;28;21083;-64
2022/05/07 08:55:54;;;;;;;15.23;13.67;;;;;;;27.56;32.31;101048.09;5059796;28;20558;-64
2022/05/07 08:58:21;;;;;;;17.07;15.27;;;;;;;25.41;35.02;101047.69;5060287;28;20889;-64
2022/05/07 09:00:47;;;;;;;17.90;14.70;;;;;;;26.04;33.81;101039.47;5058178;28;20461;-65
2022/05/07 09:03:16;;;;;;;17.00;15.30;;;;;;;25.92;33.03;101035.75;5059216;28;20449;-65
2022/05/07 09:05:43;;;;;;;17.10;15.20;;;;;;;25.35;34.24;101032.97;5058789;28;20542;-64
2022/05/07 09:08:12;;;;;;;16.20;14.07;;;;;;;26.99;32.15;101040.19;5059023;28;20516;-64
2022/05/07 09:10:40;;;;;;;16.90;13.90;;;;;;;27.04;31.90;101038.41;5059377;28;20559;-63
2022/05/07 09:13:14;;;;;;;15.97;14.30;;;;;;;27.64;31.30;101036.78;5054014;28;20495;-64
2022/05/07 09:15:51;;;;;;;14.90;13.37;;;;;;;27.87;30.72;101027.72;5058440;28;20488;-62
2022/05/07 09:18:19;;;;;;;15.23;13.57;;;;;;;28.07;29.98;101034.84;5058559;28;20471;-64
2022/05/07 09:20:46;;;;;;;14.67;13.27;;;;;;;26.39;32.17;101035.34;5058117;28;20511;-65
2022/05/07 09:23:14;;;;;;;14.63;12.90;;;;;;;26.72;31.68;101040.50;5058727;28;20437;-62
2022/05/07 09:25:45;;;;;;;13.23;11.80;;;;;;;25.32;32.91;101034.25;5056452;28;20761;-63
2022/05/07 09:28:12;;;;;;;14.37;12.03;;;;;;;26.36;32.26;101041.28;5049653;28;20711;-65
2022/05/07 09:30:42;;;;;;;11.90;10.70;;;;;;;25.20;32.69;101035.97;5055489;28;20484;-62
2022/05/07 09:33:09;;;;;;;14.00;10.90;;;;;;;25.45;34.29;101043.44;5057558;28;20544;-62
2022/05/07 09:35:51;;;;;;;14.70;10.70;;;;;;;24.69;34.28;101032.19;5057130;28;20484;-62
2022/05/07 09:38:24;;;;;;;12.40;10.83;;;;;;;25.36;33.39;101034.63;5055963;28;20505;-64
2022/05/07 09:40:51;;;;;;;16.87;11.47;;;;;;;25.05;34.67;101029.94;5057058;28;20552;-64
2022/05/07 09:43:18;;;;;;;11.37;10.20;;;;;;;25.18;34.72;101033.44;5056803;28;20492;-64
2022/05/07 09:45:45;;;;;;;13.43;11.17;;;;;;;24.80;35.79;101026.03;5056303;28;20468;-63
2022/05/07 09:48:13;;;;;;;12.70;10.97;;;;;;;25.25;35.30;101025.22;5046024;28;20449;-63
2022/05/07 09:50:45;;;;;;;12.70;10.87;;;;;;;24.92;36.08;101034.41;5050725;28;20497;-63
2022/05/07 09:58:45;;;;;;;14.97;13.37;;;;;;;25.32;34.89;101033.41;5055927;28;20462;-63
2022/05/07 10:01:37;;;;;;;13.80;12.30;;;;;;;25.98;34.19;101040.34;5057710;28;20592;-63
2022/05/07 10:04:20;;;;;;;13.47;11.90;;;;;;;25.94;34.06;101033.66;5056815;28;20460;-63
2022/05/07 10:06:58;;;;;;;14.13;12.70;;;;;;;25.63;34.92;101027.09;5062224;28;20502;-63
2022/05/07 10:09:33;;;;;;;14.37;13.03;;;;;;;25.82;34.31;101030.75;5062575;28;20926;-63
2022/05/07 10:12:02;;;;;;;14.57;13.07;;;;;;;25.00;36.71;101036.91;5061934;28;20506;-63
2022/05/07 10:14:30;;;;;;;12.87;11.67;;;;;;;26.11;34.45;101036.69;5061319;28;20484;-63
2022/05/07 10:16:58;;;;;;;14.13;12.20;;;;;;;25.31;34.45;101037.19;5062536;28;20484;-63
2022/05/07 10:19:34;;;;;;;13.27;11.20;;;;;;;24.05;36.63;101041.94;5062644;28;20535;-64
2022/05/07 10:22:01;;;;;;;16.10;13.93;;;;;;;24.31;36.08;101032.88;5061788;28;20495;-63
2022/05/07 10:24:27;;;;;;;15.87;12.90;;;;;;;24.19;35.76;101031.84;5062625;28;20451;-62
2022/05/07 10:26:54;;;;;;;14.00;12.23;;;;;;;23.46;38.51;101038.88;5062225;28;20480;-63
2022/05/07 10:29:23;;;;;;;12.37;9.67;;;;;;;25.14;33.54;101034.94;5061154;28;20479;-65
2022/05/07 10:31:50;;;;;;;14.27;10.60;;;;;;;25.17;33.77;101025.44;5061588;28;20478;-64
2022/05/07 10:34:24;;;;;;;10.17;9.07;;;;;;;25.22;34.35;101022.91;5062454;28;20472;-64
2022/05/07 10:37:00;;;;;;;11.30;9.20;;;;;;;27.29;29.90;101029.25;5061493;28;20511;-63
2022/05/07 10:39:27;;;;;;;10.20;9.17;;;;;;;27.16;30.02;101030.25;5062254;28;20451;-63
2022/05/07 10:41:54;;;;;;;10.70;8.60;;;;;;;29.28;28.21;101024.00;5061753;28;20504;-63
2022/05/07 10:44:32;;;;;;;10.43;7.60;;;;;;;28.46;28.61;101021.44;5061126;28;20452;-63
2022/05/07 10:47:09;;;;;;;9.73;7.97;;;;;;;28.09;29.41;101022.53;5062008;28;20518;-63
2022/05/07 10:49:36;;;;;;;11.83;7.23;;;;;;;27.66;29.40;101028.31;5041979;28;20448;-63
2022/05/07 10:52:04;;;;;;;11.10;9.00;;;;;;;26.54;30.26;101024.00;5041046;28;20923;-64
2022/05/07 10:54:31;;;;;;;13.40;8.27;;;;;;;25.46;33.47;101021.31;5042209;28;20469;-63
2022/05/07 10:56:59;;;;;;;14.57;8.80;;;;;;;26.46;31.59;101023.25;5043856;28;20488;-63
2022/05/07 10:59:27;;;;;;;9.63;8.50;;;;;;;27.71;29.16;101011.94;5060962;28;20449;-63
2022/05/07 11:02:06;;;;;;;9.93;8.83;;;;;;;28.54;28.56;101008.19;5061290;28;20473;-63
2022/05/07 11:04:42;;;;;;;10.10;7.30;;;;;;;29.52;27.64;101012.06;5041178;28;20452;-63
2022/05/07 11:07:09;;;;;;;11.73;8.53;;;;;;;28.87;27.79;101005.81;5041167;28;20613;-63
2022/05/07 11:09:37;;;;;;;8.80;7.90;;;;;;;29.11;27.60;101009.31;5054622;28;20476;-63
2022/05/07 11:12:05;;;;;;;11.30;7.37;;;;;;;29.06;28.34;100995.47;5060937;28;20536;-63
2022/05/07 11:14:35;;;;;;;6.83;6.13;;;;;;;29.24;26.31;101005.50;5041415;28;20477;-63
2022/05/07 11:17:04;;;;;;;7.83;5.93;;;;;;;28.47;27.21;100995.59;5061520;28;20571;-63
2022/05/07 11:19:33;;;;;;;6.13;5.03;;;;;;;28.63;26.55;100988.56;5061599;28;21287;-63
2022/05/07 11:22:01;;;;;;;7.30;3.63;;;;;;;27.42;25.66;100995.28;5060272;28;20563;-63
2022/05/07 11:24:29;;;;;;;6.13;4.20;;;;;;;28.62;25.93;100997.88;5061841;28;20433;-63
2022/05/07 11:26:57;;;;;;;9.70;5.07;;;;;;;28.71;25.34;100991.78;5061368;28;20582;-63
2022/05/07 11:29:24;;;;;;;5.87;4.43;;;;;;;27.42;26.47;100996.09;5060074;28;20453;-63
2022/05/07 11:31:55;;;;;;;7.57;5.20;;;;;;;28.64;26.17;100991.03;5060022;28;20508;-64
2022/05/07 11:34:29;;;;;;;7.73;4.87;;;;;;;28.20;25.99;100979.63;5061624;28;20499;-63
2022/05/07 11:36:57;;;;;;;6.97;5.20;;;;;;;28.96;25.96;100987.84;5060463;28;20481;-64
2022/05/07 11:39:24;;;;;;;7.97;5.23;;;;;;;27.61;27.62;100980.38;5061512;28;21035;-63
2022/05/07 11:41:54;;;;;;;8.43;4.50;;;;;;;27.83;27.50;100981.72;5060626;28;20543;-64
2022/05/07 11:47:20;;;;;;;5.47;4.70;;;;;;;27.50;27.39;100972.97;5060439;28;20467;-64